Time;durP1;ratioP1;P1;durP2;ratioP2;P2;SDS_P1;SDS_P2;PMS_P1;PMS_P2;Temp;Humidity;BMP_temperature;BMP_pressure;BME280_temperature;BME280_humidity;BME280_pressure;Samples;Min_cycle;Max_cycle;Signal;HPM_P1;HPM_P2
2023/03/31 00:00:59;;;;;;;5.70;2.00;;;11.40;74.00;;;;;;5029574;28;20455;-68
2023/03/31 00:03:26;;;;;;;4.70;2.23;;;11.30;75.00;;;;;;5028848;28;20486;-68
2023/03/31 00:05:57;;;;;;;3.87;1.80;;;11.30;75.30;;;;;;5029473;28;20462;-69
2023/03/31 00:08:24;;;;;;;9.30;1.80;;;11.20;74.80;;;;;;5029491;28;20814;-68
2023/03/31 00:10:51;;;;;;;2.57;1.60;;;11.10;75.20;;;;;;5029985;28;20453;-69
2023/03/31 00:13:19;;;;;;;4.93;1.73;;;11.10;75.40;;;;;;5029562;28;20455;-68
2023/03/31 00:15:45;;;;;;;3.63;2.20;;;11.00;74.50;;;;;;5029723;28;20450;-68
2023/03/31 00:18:12;;;;;;;5.97;1.83;;;11.00;74.70;;;;;;5029346;28;20468;-68
2023/03/31 00:20:41;;;;;;;5.40;2.03;;;11.10;74.10;;;;;;5029401;28;20452;-69
2023/03/31 00:23:09;;;;;;;6.40;1.93;;;11.10;73.90;;;;;;5033075;28;21013;-68
2023/03/31 00:25:39;;;;;;;7.30;2.20;;;11.10;74.40;;;;;;5033109;28;20501;-68
2023/03/31 00:28:06;;;;;;;3.20;2.00;;;11.10;74.30;;;;;;5033286;28;20470;-68
2023/03/31 00:30:34;;;;;;;2.50;1.83;;;11.30;73.30;;;;;;5033019;28;20458;-68
2023/03/31 00:33:01;;;;;;;3.80;1.70;;;11.40;72.80;;;;;;5032268;28;20448;-68
2023/03/31 00:35:28;;;;;;;4.07;1.80;;;11.30;72.80;;;;;;5033316;28;20444;-67
2023/03/31 00:37:56;;;;;;;2.50;1.60;;;11.20;73.80;;;;;;5032779;28;20447;-68
2023/03/31 00:40:23;;;;;;;6.37;2.10;;;11.10;75.30;;;;;;5033057;28;20549;-69
2023/03/31 00:42:50;;;;;;;5.60;2.30;;;11.10;75.50;;;;;;5032705;28;20444;-68
2023/03/31 00:45:28;;;;;;;5.97;2.17;;;11.00;76.50;;;;;;5032798;28;20450;-68
2023/03/31 00:48:03;;;;;;;4.20;1.73;;;11.00;74.80;;;;;;5033049;28;20446;-70
2023/03/31 00:50:32;;;;;;;3.33;1.70;;;11.00;75.80;;;;;;5032718;28;20445;-69
2023/03/31 00:53:02;;;;;;;4.50;1.90;;;11.00;76.30;;;;;;5032363;28;20449;-68
2023/03/31 00:55:35;;;;;;;4.13;1.87;;;10.90;77.30;;;;;;5032377;28;20445;-67
2023/03/31 00:58:03;;;;;;;5.13;2.17;;;10.90;77.20;;;;;;5032601;28;20465;-68
2023/03/31 01:00:30;;;;;;;4.57;2.23;;;10.80;77.30;;;;;;5032810;28;20536;-69
2023/03/31 01:03:02;;;;;;;5.00;2.37;;;10.80;76.60;;;;;;5032206;28;20451;-68
2023/03/31 01:05:34;;;;;;;5.73;2.53;;;10.80;77.40;;;;;;5032616;28;20524;-69
2023/03/31 01:08:02;;;;;;;6.33;2.50;;;10.80;77.80;;;;;;5032341;28;20461;-68
2023/03/31 01:10:34;;;;;;;8.03;2.87;;;10.90;76.50;;;;;;5032388;28;20455;-69
2023/03/31 01:13:01;;;;;;;3.43;2.20;;;11.00;77.00;;;;;;5032151;28;20547;-68
2023/03/31 01:15:27;;;;;;;5.17;2.70;;;11.10;77.10;;;;;;5032270;28;20450;-68
2023/03/31 01:17:56;;;;;;;4.33;2.07;;;11.10;75.80;;;;;;5032144;28;20451;-69
2023/03/31 01:20:31;;;;;;;4.20;2.20;;;11.10;77.20;;;;;;5032143;28;20454;-69
2023/03/31 01:23:29;;;;;;;3.60;2.60;;;11.20;75.10;;;;;;5031881;28;20541;-68
2023/03/31 01:26:37;;;;;;;7.77;2.30;;;11.30;74.60;;;;;;5032173;28;20928;-69
2023/03/31 01:29:18;;;;;;;7.20;3.03;;;11.30;75.70;;;;;;5031903;28;20480;-69
2023/03/31 01:32:31;;;;;;;6.20;2.30;;;11.30;75.30;;;;;;5031839;28;21232;-68
2023/03/31 01:35:34;;;;;;;6.23;2.27;;;11.30;74.70;;;;;;5004035;28;20457;-68
2023/03/31 01:38:23;;;;;;;5.63;2.53;;;11.30;74.80;;;;;;5032090;28;20523;-68
2023/03/31 01:41:17;;;;;;;9.40;3.93;;;11.40;73.50;;;;;;5031894;28;20459;-66
2023/03/31 01:43:49;;;;;;;4.97;2.10;;;11.50;72.70;;;;;;5031415;28;20491;-68
2023/03/31 01:46:28;;;;;;;8.97;2.83;;;11.60;72.40;;;;;;5032113;28;20455;-68
2023/03/31 01:49:03;;;;;;;7.00;2.07;;;11.60;71.90;;;;;;5031739;28;20469;-69
2023/03/31 01:51:35;;;;;;;6.57;2.30;;;11.70;71.60;;;;;;5031780;28;20441;-66
2023/03/31 01:54:11;;;;;;;6.57;2.37;;;11.70;71.40;;;;;;5031187;28;20446;-67
2023/03/31 01:56:43;;;;;;;8.40;2.80;;;11.70;71.40;;;;;;5032004;28;20453;-68
2023/03/31 01:59:14;;;;;;;5.60;3.80;;;11.80;71.60;;;;;;5031613;28;20462;-69
2023/03/31 02:01:47;;;;;;;3.70;2.13;;;11.90;70.10;;;;;;5031412;28;20449;-68
2023/03/31 02:04:19;;;;;;;4.00;1.50;;;12.00;68.00;;;;;;5030954;28;20498;-68
2023/03/31 02:06:52;;;;;;;7.83;2.00;;;12.20;63.10;;;;;;5031244;28;20481;-67
2023/03/31 02:09:23;;;;;;;5.20;1.80;;;12.40;63.70;;;;;;5031683;28;20534;-67
2023/03/31 02:11:53;;;;;;;3.90;2.10;;;12.50;63.20;;;;;;5031292;28;20454;-68
2023/03/31 02:14:24;;;;;;;3.90;1.80;;;12.50;63.30;;;;;;5031140;28;20450;-67
2023/03/31 02:16:57;;;;;;;4.50;1.50;;;12.50;63.40;;;;;;5031316;28;20464;-68
2023/03/31 02:19:27;;;;;;;2.90;1.70;;;12.50;62.10;;;;;;5031785;28;20471;-67
2023/03/31 02:21:55;;;;;;;2.60;1.30;;;12.60;61.50;;;;;;5031277;28;20468;-67
2023/03/31 02:24:26;;;;;;;3.40;1.87;;;12.70;61.20;;;;;;5031082;28;20475;-70
2023/03/31 02:27:03;;;;;;;8.00;3.80;;;12.60;62.60;;;;;;5031444;28;20800;-68
2023/03/31 02:29:30;;;;;;;4.30;1.80;;;12.50;64.60;;;;;;5030737;28;20476;-67
2023/03/31 02:32:03;;;;;;;3.53;1.60;;;12.30;66.20;;;;;;5031236;28;20456;-69
2023/03/31 02:34:30;;;;;;;5.57;1.70;;;12.10;69.50;;;;;;5030687;28;20446;-66
2023/03/31 02:36:57;;;;;;;4.33;1.50;;;11.90;71.70;;;;;;5031035;28;20449;-68
2023/03/31 02:39:28;;;;;;;5.53;2.27;;;11.70;72.90;;;;;;5030590;28;20474;-67
2023/03/31 02:41:57;;;;;;;10.63;2.00;;;11.50;74.80;;;;;;5030700;28;20471;-69
2023/03/31 02:44:24;;;;;;;10.70;2.70;;;11.40;75.70;;;;;;5029302;28;20481;-67
2023/03/31 02:46:51;;;;;;;3.60;1.87;;;11.30;75.20;;;;;;5031145;28;20456;-69
2023/03/31 02:49:20;;;;;;;4.77;1.93;;;11.30;75.70;;;;;;5030692;28;20480;-67
2023/03/31 02:52:00;;;;;;;4.90;1.80;;;11.20;75.80;;;;;;5030480;28;20453;-68
2023/03/31 02:54:54;;;;;;;4.27;2.10;;;11.20;76.10;;;;;;5030298;28;20445;-68
2023/03/31 02:57:39;;;;;;;8.57;2.63;;;11.20;77.30;;;;;;5030510;28;20446;-69
2023/03/31 03:00:17;;;;;;;6.40;2.27;;;11.20;77.00;;;;;;5030439;28;20464;-69
2023/03/31 03:02:57;;;;;;;4.10;1.80;;;11.20;76.70;;;;;;5029742;28;20966;-70
2023/03/31 03:05:34;;;;;;;6.40;2.80;;;11.20;77.30;;;;;;5030080;28;20489;-69
2023/03/31 03:08:16;;;;;;;5.10;2.17;;;11.20;77.60;;;;;;5030093;28;20470;-69
2023/03/31 03:10:52;;;;;;;3.43;1.93;;;11.20;78.70;;;;;;5030352;28;20463;-68
2023/03/31 03:13:27;;;;;;;5.17;2.70;;;11.20;78.90;;;;;;5029761;28;20452;-68
2023/03/31 03:16:00;;;;;;;4.27;2.30;;;11.20;79.00;;;;;;5030219;28;20447;-70
2023/03/31 03:18:28;;;;;;;3.63;1.87;;;11.30;77.90;;;;;;5030179;28;21118;-67
2023/03/31 03:20:55;;;;;;;5.13;2.13;;;11.30;78.70;;;;;;5029919;28;20441;-69
2023/03/31 03:23:21;;;;;;;7.37;2.57;;;11.30;76.70;;;;;;5029735;28;20803;-68
2023/03/31 03:25:48;;;;;;;5.17;2.13;;;11.40;77.40;;;;;;5029576;28;20563;-68
2023/03/31 03:28:16;;;;;;;4.90;2.37;;;11.40;76.80;;;;;;5029995;28;20471;-69
2023/03/31 03:30:44;;;;;;;4.83;2.40;;;11.40;77.30;;;;;;5029582;28;21203;-68
2023/03/31 03:33:15;;;;;;;5.63;2.47;;;11.30;76.90;;;;;;5029348;28;20498;-70
2023/03/31 03:35:42;;;;;;;2.60;2.13;;;11.20;77.30;;;;;;5029838;28;20481;-69
2023/03/31 03:38:09;;;;;;;6.13;2.70;;;11.10;78.20;;;;;;5029589;28;20509;-68
2023/03/31 03:40:36;;;;;;;4.80;2.90;;;11.00;78.30;;;;;;5029699;28;20466;-67
2023/03/31 03:43:02;;;;;;;3.03;2.70;;;11.00;78.00;;;;;;5029189;28;21074;-68
2023/03/31 03:45:29;;;;;;;5.27;2.53;;;11.00;79.00;;;;;;5029849;28;20480;-68
2023/03/31 03:47:57;;;;;;;6.40;2.73;;;11.00;78.80;;;;;;5029682;28;20461;-67
2023/03/31 03:50:24;;;;;;;4.30;2.40;;;11.00;78.60;;;;;;5029504;28;20447;-68
2023/03/31 03:52:51;;;;;;;4.67;2.40;;;11.10;78.40;;;;;;5029292;28;20464;-68
2023/03/31 03:55:18;;;;;;;5.63;2.10;;;11.10;77.90;;;;;;5029921;28;20438;-66
2023/03/31 03:57:45;;;;;;;6.13;3.20;;;11.20;77.50;;;;;;5036225;28;20451;-68
2023/03/31 04:00:12;;;;;;;4.70;2.60;;;11.20;77.10;;;;;;5036076;28;20602;-68
2023/03/31 04:02:39;;;;;;;4.70;2.60;;;11.20;77.70;;;;;;5035871;28;20449;-68
2023/03/31 04:05:08;;;;;;;7.03;2.43;;;11.10;77.80;;;;;;5036113;28;20480;-69
2023/03/31 04:07:35;;;;;;;5.50;3.00;;;11.10;78.70;;;;;;5035977;28;20939;-70
2023/03/31 04:10:01;;;;;;;7.03;3.97;;;11.20;79.20;;;;;;5036326;28;20471;-68
2023/03/31 04:12:28;;;;;;;7.20;3.10;;;11.10;78.30;;;;;;5035860;28;20452;-68
2023/03/31 04:14:55;;;;;;;7.00;3.50;;;11.00;78.50;;;;;;5036116;28;20448;-70
2023/03/31 04:17:31;;;;;;;8.77;3.63;;;10.80;78.90;;;;;;5035987;28;20448;-68
2023/03/31 04:20:00;;;;;;;4.80;3.10;;;10.70;79.60;;;;;;5035925;28;20467;-67
2023/03/31 04:22:34;;;;;;;5.00;3.40;;;10.60;80.40;;;;;;5036051;28;20952;-68
2023/03/31 04:25:01;;;;;;;11.10;3.53;;;10.40;81.40;;;;;;5036447;28;20519;-66
2023/03/31 04:27:29;;;;;;;4.93;2.93;;;10.30;81.70;;;;;;5036494;28;20455;-68
2023/03/31 04:29:56;;;;;;;6.47;3.37;;;10.20;82.20;;;;;;5036001;28;20494;-68
2023/03/31 04:32:24;;;;;;;3.50;3.17;;;10.20;83.40;;;;;;5036068;28;20445;-66
2023/03/31 04:34:50;;;;;;;7.67;3.50;;;10.20;83.70;;;;;;5035843;28;20447;-68
2023/03/31 04:37:17;;;;;;;6.20;3.70;;;10.20;83.40;;;;;;5036167;28;20463;-68
2023/03/31 04:39:49;;;;;;;5.20;3.63;;;10.30;84.00;;;;;;5035912;28;20467;-68
2023/03/31 04:42:16;;;;;;;6.27;3.93;;;10.40;82.60;;;;;;5035686;28;20460;-69
2023/03/31 04:44:42;;;;;;;6.37;3.77;;;10.50;82.80;;;;;;5035663;28;20478;-67
2023/03/31 04:47:09;;;;;;;7.63;4.33;;;10.50;83.00;;;;;;5035561;28;20450;-66
2023/03/31 04:49:36;;;;;;;7.17;4.00;;;10.50;83.50;;;;;;5036196;28;20468;-68
2023/03/31 04:52:03;;;;;;;11.27;4.27;;;10.50;83.10;;;;;;5036469;28;20462;-70
2023/03/31 04:54:30;;;;;;;6.83;4.10;;;10.50;83.00;;;;;;5036158;28;20531;-66
2023/03/31 04:56:58;;;;;;;7.40;4.10;;;10.50;83.20;;;;;;5035981;28;21163;-69
2023/03/31 04:59:24;;;;;;;5.53;4.23;;;10.60;83.60;;;;;;5035451;28;20960;-67
2023/03/31 05:01:51;;;;;;;6.30;3.73;;;10.60;82.70;;;;;;5035580;28;20803;-68
2023/03/31 05:04:18;;;;;;;9.07;3.97;;;10.60;82.90;;;;;;5034857;28;20922;-68
2023/03/31 05:06:45;;;;;;;8.27;3.77;;;10.70;81.90;;;;;;5035586;28;20449;-68
2023/03/31 05:09:12;;;;;;;8.67;4.67;;;10.60;83.00;;;;;;5031335;28;20469;-68
2023/03/31 05:11:39;;;;;;;7.47;4.00;;;10.70;81.60;;;;;;5032465;28;20466;-68
2023/03/31 05:14:07;;;;;;;9.00;4.60;;;10.80;81.90;;;;;;5032054;28;20539;-70
2023/03/31 05:16:34;;;;;;;7.60;4.63;;;10.80;81.20;;;;;;5032167;28;20445;-69
2023/03/31 05:19:01;;;;;;;5.80;3.77;;;10.90;81.40;;;;;;5032362;28;20496;-68
2023/03/31 05:21:29;;;;;;;6.20;3.60;;;10.90;81.40;;;;;;5028042;28;20451;-69
2023/03/31 05:23:56;;;;;;;5.60;3.67;;;10.90;83.00;;;;;;5026741;28;20989;-70
2023/03/31 05:26:24;;;;;;;7.60;4.47;;;10.70;84.40;;;;;;5030393;28;20514;-70
2023/03/31 05:28:51;;;;;;;6.53;4.30;;;10.60;86.20;;;;;;5031668;28;20891;-67
2023/03/31 05:31:19;;;;;;;12.47;4.27;;;10.50;87.40;;;;;;5032146;28;21012;-68
2023/03/31 05:33:46;;;;;;;7.47;4.73;;;10.40;90.00;;;;;;5030561;28;20495;-68
2023/03/31 05:36:15;;;;;;;14.03;5.00;;;10.20;90.60;;;;;;5031094;28;20527;-69
2023/03/31 05:38:43;;;;;;;9.40;5.07;;;10.10;91.30;;;;;;5030915;28;20996;-68
2023/03/31 05:41:10;;;;;;;11.87;4.70;;;9.90;92.30;;;;;;5030733;28;20455;-70
2023/03/31 05:43:38;;;;;;;6.40;4.03;;;10.00;92.00;;;;;;5030719;28;20463;-70
2023/03/31 05:46:05;;;;;;;6.20;4.90;;;9.90;93.20;;;;;;5030732;28;20487;-68
2023/03/31 05:48:33;;;;;;;8.90;5.10;;;9.80;93.80;;;;;;5030773;28;20471;-71
2023/03/31 05:51:02;;;;;;;6.97;5.67;;;9.70;94.40;;;;;;5031843;28;20458;-71
2023/03/31 05:53:30;;;;;;;8.53;5.97;;;9.70;94.90;;;;;;5031302;28;20446;-69
2023/03/31 05:55:58;;;;;;;9.87;6.27;;;9.60;95.50;;;;;;5030680;28;20987;-69
2023/03/31 05:58:25;;;;;;;11.60;5.43;;;9.60;95.50;;;;;;5031709;28;20518;-69
2023/03/31 06:01:01;;;;;;;11.83;5.90;;;9.60;95.80;;;;;;5031288;28;20447;-69
2023/03/31 06:03:27;;;;;;;10.03;6.20;;;9.60;96.20;;;;;;5031354;28;20444;-69
2023/03/31 06:05:56;;;;;;;7.30;6.53;;;9.50;96.10;;;;;;5031361;28;20829;-70
2023/03/31 06:08:23;;;;;;;8.00;5.90;;;9.50;96.50;;;;;;5031314;28;20483;-68
2023/03/31 06:10:50;;;;;;;9.27;7.17;;;9.50;96.60;;;;;;5031421;28;20866;-69
2023/03/31 06:13:17;;;;;;;9.07;6.00;;;9.50;96.80;;;;;;5031208;28;20448;-69
2023/03/31 06:15:52;;;;;;;9.57;7.13;;;9.60;97.00;;;;;;5031163;28;20961;-70
2023/03/31 06:18:18;;;;;;;8.93;6.13;;;9.60;97.10;;;;;;5031348;28;20464;-71
2023/03/31 06:20:45;;;;;;;10.67;7.80;;;9.60;97.40;;;;;;5031037;28;20977;-69
2023/03/31 06:23:13;;;;;;;11.63;6.80;;;9.70;97.40;;;;;;5030916;28;20445;-67
2023/03/31 06:25:40;;;;;;;9.23;6.60;;;9.70;97.40;;;;;;5031246;28;20863;-68
2023/03/31 06:28:07;;;;;;;14.10;7.70;;;9.70;97.20;;;;;;5031464;28;20475;-70
2023/03/31 06:30:35;;;;;;;9.70;5.90;;;9.80;97.30;;;;;;5031313;28;21016;-68
2023/03/31 06:33:01;;;;;;;13.07;9.53;;;9.80;97.60;;;;;;5031112;28;20465;-69
2023/03/31 06:35:28;;;;;;;11.40;8.60;;;9.80;96.90;;;;;;5031111;28;20468;-69
2023/03/31 06:37:55;;;;;;;9.30;8.17;;;9.90;96.90;;;;;;5031260;28;20453;-71
2023/03/31 06:40:23;;;;;;;10.97;7.77;;;9.90;96.90;;;;;;5031235;28;20456;-68
2023/03/31 06:42:50;;;;;;;13.77;7.40;;;9.90;96.90;;;;;;5030737;28;20452;-69
2023/03/31 06:45:17;;;;;;;10.00;7.53;;;9.80;96.70;;;;;;5030900;28;20480;-68
2023/03/31 06:47:43;;;;;;;12.40;7.70;;;9.80;97.10;;;;;;5030657;28;20458;-70
2023/03/31 06:50:10;;;;;;;14.63;8.57;;;9.80;96.90;;;;;;5030889;28;20455;-68
2023/03/31 06:52:39;;;;;;;10.40;7.57;;;9.80;96.70;;;;;;5030630;28;20456;-71
2023/03/31 06:55:08;;;;;;;11.20;7.93;;;9.80;96.90;;;;;;5030638;28;20459;-70
2023/03/31 06:57:36;;;;;;;11.20;8.30;;;9.80;96.70;;;;;;5030672;28;20541;-69
2023/03/31 07:00:04;;;;;;;15.33;8.27;;;9.80;96.60;;;;;;5030466;28;20541;-67
2023/03/31 07:02:31;;;;;;;14.13;9.40;;;9.80;96.70;;;;;;5030103;28;20481;-68
2023/03/31 07:04:58;;;;;;;19.57;8.63;;;9.70;96.80;;;;;;5030317;28;20868;-71
2023/03/31 07:07:24;;;;;;;13.73;9.40;;;9.80;96.60;;;;;;5030433;28;20477;-70
2023/03/31 07:09:51;;;;;;;13.50;9.80;;;9.80;96.60;;;;;;5030164;28;20475;-69
2023/03/31 07:12:19;;;;;;;13.07;9.10;;;9.80;97.00;;;;;;5030145;28;20457;-71
2023/03/31 07:14:47;;;;;;;16.17;10.40;;;9.80;97.00;;;;;;5030039;28;20464;-68
2023/03/31 07:17:14;;;;;;;13.13;9.30;;;9.80;97.00;;;;;;5030152;28;20538;-69
2023/03/31 07:19:41;;;;;;;13.50;8.40;;;9.80;97.20;;;;;;5030020;28;20480;-70
2023/03/31 07:22:08;;;;;;;12.60;8.80;;;9.80;97.00;;;;;;5030300;28;20460;-69
2023/03/31 07:24:34;;;;;;;11.10;7.00;;;9.80;96.80;;;;;;5029911;28;20483;-69
2023/03/31 07:27:01;;;;;;;11.20;5.97;;;9.80;96.90;;;;;;5030259;28;20485;-68
2023/03/31 07:29:28;;;;;;;9.87;6.20;;;9.90;96.30;;;;;;5030001;28;20465;-69
2023/03/31 07:31:56;;;;;;;10.97;7.10;;;10.00;95.70;;;;;;5029635;28;20453;-71
2023/03/31 07:34:23;;;;;;;10.27;5.97;;;10.00;95.60;;;;;;5029913;28;20456;-70
2023/03/31 07:36:50;;;;;;;8.17;6.23;;;10.00;95.60;;;;;;5030371;28;20503;-69
2023/03/31 07:39:17;;;;;;;7.03;5.93;;;10.00;95.60;;;;;;5029335;28;20477;-68
2023/03/31 07:41:44;;;;;;;7.00;4.90;;;10.20;95.20;;;;;;5029763;28;20457;-69
2023/03/31 07:44:11;;;;;;;6.43;4.73;;;10.30;95.00;;;;;;5028585;28;20466;-71
2023/03/31 07:46:38;;;;;;;5.40;4.57;;;10.30;94.60;;;;;;5029548;28;20479;-68
2023/03/31 07:49:06;;;;;;;4.80;3.67;;;10.30;93.90;;;;;;5029774;28;20466;-69
2023/03/31 07:51:33;;;;;;;3.90;3.50;;;10.20;94.10;;;;;;5029703;28;20972;-70
2023/03/31 07:54:00;;;;;;;5.27;3.00;;;10.10;94.00;;;;;;5029513;28;20461;-68
2023/03/31 07:56:27;;;;;;;6.87;3.40;;;10.30;93.40;;;;;;5029724;28;20446;-70
2023/03/31 07:58:54;;;;;;;4.17;3.57;;;10.40;93.60;;;;;;5029681;28;20463;-70
2023/03/31 08:01:24;;;;;;;4.40;2.10;;;10.40;93.80;;;;;;5029691;28;21349;-69
2023/03/31 08:03:53;;;;;;;3.73;2.73;;;10.50;92.70;;;;;;5029670;28;20830;-69
2023/03/31 08:06:23;;;;;;;4.60;2.73;;;10.50;93.10;;;;;;5029804;28;20545;-70
2023/03/31 08:08:50;;;;;;;3.73;2.23;;;10.50;92.30;;;;;;5029866;28;20464;-69
2023/03/31 08:11:18;;;;;;;3.40;2.13;;;10.70;92.50;;;;;;5029972;28;20447;-70
2023/03/31 08:13:45;;;;;;;2.03;1.40;;;10.90;92.50;;;;;;5029522;28;20448;-68
2023/03/31 08:16:12;;;;;;;2.33;1.50;;;11.10;91.30;;;;;;5029852;28;20450;-70
2023/03/31 08:18:38;;;;;;;1.53;1.13;;;11.20;90.50;;;;;;5029769;28;20464;-68
2023/03/31 08:21:05;;;;;;;1.70;1.40;;;11.40;87.60;;;;;;5029577;28;20474;-68
2023/03/31 08:23:33;;;;;;;2.23;1.17;;;11.60;88.20;;;;;;5029322;28;20456;-70
2023/03/31 08:26:09;;;;;;;2.70;0.90;;;11.70;88.00;;;;;;5029303;28;20486;-70
2023/03/31 08:28:35;;;;;;;2.17;1.60;;;11.80;88.80;;;;;;5029664;28;20489;-68
2023/03/31 08:31:04;;;;;;;1.37;1.10;;;12.00;85.50;;;;;;5029558;28;20455;-71
2023/03/31 08:33:31;;;;;;;2.90;1.33;;;12.10;84.00;;;;;;5029099;28;20503;-69
2023/03/31 08:36:02;;;;;;;2.67;1.33;;;12.20;85.30;;;;;;5029346;28;20448;-68
2023/03/31 08:38:29;;;;;;;1.83;1.27;;;12.40;82.60;;;;;;5029333;28;20967;-71
2023/03/31 08:41:01;;;;;;;2.50;1.70;;;12.40;83.70;;;;;;5029317;28;20464;-68
2023/03/31 08:43:31;;;;;;;2.47;2.00;;;12.60;80.60;;;;;;5031312;28;20485;-69
2023/03/31 08:45:59;;;;;;;3.50;1.60;;;12.70;81.00;;;;;;5033486;28;20487;-66
2023/03/31 08:48:29;;;;;;;2.20;1.33;;;12.90;79.50;;;;;;5033387;28;20464;-70
2023/03/31 08:51:01;;;;;;;2.23;1.47;;;13.00;81.10;;;;;;5033307;28;20507;-68
2023/03/31 08:53:31;;;;;;;2.00;1.40;;;13.20;76.50;;;;;;5032988;28;20447;-69
2023/03/31 08:56:00;;;;;;;3.50;1.47;;;13.30;76.50;;;;;;5033093;28;20465;-70
2023/03/31 08:58:35;;;;;;;1.87;1.10;;;13.40;75.80;;;;;;5032930;28;20506;-68
2023/03/31 09:01:09;;;;;;;2.53;0.97;;;13.60;74.70;;;;;;5032980;28;20459;-67
2023/03/31 09:03:45;;;;;;;3.70;1.37;;;13.70;74.70;;;;;;5032249;28;20447;-67
2023/03/31 09:06:17;;;;;;;3.00;1.30;;;13.70;72.10;;;;;;5032875;28;20483;-70
2023/03/31 09:08:44;;;;;;;3.70;1.10;;;13.90;73.40;;;;;;5032879;28;20469;-69
2023/03/31 09:11:21;;;;;;;1.63;1.50;;;14.00;73.80;;;;;;5032761;28;20447;-68
2023/03/31 09:14:03;;;;;;;4.07;1.70;;;14.10;73.20;;;;;;5032364;28;20455;-69
2023/03/31 09:16:35;;;;;;;1.97;1.33;;;14.40;70.80;;;;;;5032763;28;20479;-69
2023/03/31 09:19:03;;;;;;;3.67;1.13;;;14.80;67.10;;;;;;5032369;28;20999;-68
2023/03/31 09:21:33;;;;;;;3.80;1.57;;;15.40;67.40;;;;;;5032532;28;20474;-70
2023/03/31 09:24:05;;;;;;;2.93;1.33;;;15.70;62.40;;;;;;5032091;28;20452;-69
2023/03/31 09:26:37;;;;;;;2.53;1.17;;;16.00;62.60;;;;;;5032180;28;20481;-70
2023/03/31 09:29:10;;;;;;;5.07;1.27;;;16.00;58.60;;;;;;5032482;28;20581;-70
2023/03/31 09:31:38;;;;;;;2.77;1.20;;;16.20;57.00;;;;;;5032257;28;20958;-69
2023/03/31 09:34:13;;;;;;;3.17;1.20;;;16.40;57.30;;;;;;5031913;28;20441;-70
2023/03/31 09:36:40;;;;;;;3.57;1.13;;;16.20;55.80;;;;;;5032345;28;20444;-67
2023/03/31 09:39:07;;;;;;;2.60;1.30;;;16.20;57.30;;;;;;5031808;28;20476;-68
2023/03/31 09:41:35;;;;;;;3.67;0.97;;;16.10;55.40;;;;;;5031950;28;20459;-70
2023/03/31 09:44:03;;;;;;;5.53;2.10;;;16.20;54.60;;;;;;5031826;28;20524;-66
2023/03/31 09:46:33;;;;;;;2.47;1.40;;;16.20;54.60;;;;;;5031872;28;20488;-68
2023/03/31 09:49:05;;;;;;;3.87;1.07;;;16.20;53.00;;;;;;5031800;28;20472;-70
2023/03/31 09:51:36;;;;;;;6.03;1.70;;;15.90;53.50;;;;;;5031838;28;20457;-68
2023/03/31 09:54:09;;;;;;;7.00;1.70;;;15.10;53.00;;;;;;5031388;28;20863;-71
2023/03/31 09:56:47;;;;;;;4.57;1.00;;;15.20;54.50;;;;;;5031987;28;20449;-68
2023/03/31 09:59:17;;;;;;;4.07;2.03;;;15.60;52.20;;;;;;5031784;28;20552;-71
2023/03/31 10:01:45;;;;;;;3.63;1.87;;;16.00;52.40;;;;;;5031891;28;20537;-67
2023/03/31 10:04:20;;;;;;;6.67;1.60;;;16.10;52.80;;;;;;5031354;28;20511;-70
2023/03/31 10:06:47;;;;;;;7.10;2.10;;;16.30;51.20;;;;;;5031981;28;20480;-70
2023/03/31 10:09:15;;;;;;;3.70;1.37;;;16.00;51.30;;;;;;5032173;28;20461;-67
2023/03/31 10:11:55;;;;;;;2.90;1.47;;;15.60;50.70;;;;;;5032184;28;20445;-67
2023/03/31 10:14:27;;;;;;;2.70;1.30;;;15.40;52.90;;;;;;5031387;28;20514;-66
2023/03/31 10:16:55;;;;;;;3.53;1.50;;;15.60;51.70;;;;;;5031511;28;20440;-66
2023/03/31 10:19:24;;;;;;;3.90;1.63;;;16.00;51.60;;;;;;5031407;28;20559;-66
2023/03/31 10:21:57;;;;;;;4.83;1.53;;;16.40;51.20;;;;;;5031311;28;20485;-67
2023/03/31 10:24:27;;;;;;;5.27;1.33;;;16.60;50.00;;;;;;5031030;28;20446;-68
2023/03/31 10:26:57;;;;;;;3.13;1.50;;;16.90;48.80;;;;;;5031158;28;20504;-68
2023/03/31 10:29:33;;;;;;;4.73;1.40;;;16.70;49.60;;;;;;5031299;28;20502;-68
2023/03/31 10:32:11;;;;;;;3.23;1.00;;;17.20;49.10;;;;;;5031201;28;20450;-67
2023/03/31 10:34:41;;;;;;;3.83;1.33;;;17.40;49.00;;;;;;5030740;28;20453;-70
2023/03/31 10:37:14;;;;;;;3.90;1.40;;;17.60;49.10;;;;;;5031024;28;20447;-68
2023/03/31 10:39:47;;;;;;;3.67;1.40;;;17.60;48.50;;;;;;5030836;28;20474;-69
2023/03/31 10:42:22;;;;;;;3.70;1.40;;;17.90;48.90;;;;;;5031355;28;20532;-69
2023/03/31 10:44:49;;;;;;;3.13;1.33;;;18.20;48.00;;;;;;5031072;28;20446;-67
2023/03/31 10:47:21;;;;;;;4.97;1.20;;;17.90;47.20;;;;;;5031124;28;20485;-66
2023/03/31 10:49:51;;;;;;;2.90;1.30;;;17.90;48.90;;;;;;5030979;28;20462;-66
2023/03/31 10:52:22;;;;;;;3.73;1.73;;;17.60;48.90;;;;;;5030707;28;20449;-68
2023/03/31 10:54:52;;;;;;;3.83;1.30;;;17.10;49.00;;;;;;5030998;28;20449;-67
2023/03/31 10:57:30;;;;;;;6.53;1.53;;;16.50;47.60;;;;;;5030721;28;20451;-67
2023/03/31 11:00:17;;;;;;;6.10;1.40;;;16.40;49.00;;;;;;5030650;28;20468;-68
2023/03/31 11:03:15;;;;;;;4.27;1.70;;;16.60;48.60;;;;;;5030419;28;20738;-67
2023/03/31 11:05:49;;;;;;;3.13;1.23;;;16.80;49.20;;;;;;5030060;28;20452;-69
2023/03/31 11:08:33;;;;;;;3.53;1.30;;;17.10;47.70;;;;;;5030481;28;20996;-69
2023/03/31 11:11:11;;;;;;;7.60;1.40;;;17.10;47.30;;;;;;5030718;28;20449;-67
2023/03/31 11:13:48;;;;;;;7.10;1.80;;;16.80;47.90;;;;;;5030047;28;20823;-68
2023/03/31 11:16:22;;;;;;;3.73;1.60;;;16.90;47.70;;;;;;5030429;28;20441;-68
2023/03/31 11:19:04;;;;;;;5.43;1.50;;;16.60;49.10;;;;;;5030248;28;20464;-70
2023/03/31 11:21:41;;;;;;;7.77;1.57;;;16.00;50.00;;;;;;5030355;28;20437;-69
2023/03/31 11:24:17;;;;;;;4.70;1.47;;;15.70;53.60;;;;;;5027911;28;20834;-68
2023/03/31 11:26:50;;;;;;;3.37;1.20;;;14.70;59.70;;;;;;5019057;28;20522;-67
2023/03/31 11:29:30;;;;;;;2.17;0.53;;;13.10;71.40;;;;;;5010837;28;20473;-68
2023/03/31 11:32:15;;;;;;;2.43;0.70;;;10.70;83.70;;;;;;5018751;28;20523;-68
2023/03/31 11:34:57;;;;;;;2.20;0.77;;;9.60;92.10;;;;;;5026405;28;20449;-69
2023/03/31 11:37:44;;;;;;;2.53;1.10;;;9.20;92.80;;;;;;5018643;28;20441;-69
2023/03/31 11:40:40;;;;;;;1.57;0.60;;;9.20;92.60;;;;;;5010423;28;20469;-69
2023/03/31 11:43:13;;;;;;;4.87;0.60;;;9.30;92.00;;;;;;5009997;28;20490;-71
2023/03/31 11:45:46;;;;;;;1.30;0.50;;;9.30;91.60;;;;;;5019092;28;20449;-69
2023/03/31 11:48:18;;;;;;;0.60;0.47;;;9.40;91.90;;;;;;5029586;28;20480;-68
2023/03/31 11:50:47;;;;;;;2.60;0.40;;;9.40;91.20;;;;;;5029775;28;20942;-69
2023/03/31 11:53:17;;;;;;;0.83;0.40;;;9.60;91.80;;;;;;5029647;28;20437;-69
2023/03/31 11:55:46;;;;;;;1.60;0.57;;;9.80;91.00;;;;;;5029800;28;20455;-70
2023/03/31 11:58:16;;;;;;;1.43;0.70;;;9.90;90.40;;;;;;5029715;28;20837;-69
2023/03/31 12:00:50;;;;;;;1.30;0.50;;;10.00;87.00;;;;;;5029376;28;20454;-69
2023/03/31 12:03:22;;;;;;;1.63;0.50;;;10.20;87.40;;;;;;5029725;28;20826;-69
2023/03/31 12:05:53;;;;;;;1.10;0.40;;;10.50;84.70;;;;;;5029815;28;20450;-69
2023/03/31 12:08:27;;;;;;;1.30;0.37;;;10.60;81.40;;;;;;5029774;28;20854;-68
2023/03/31 12:10:58;;;;;;;1.10;0.50;;;10.80;82.40;;;;;;5029153;28;20456;-67
2023/03/31 12:13:40;;;;;;;1.10;0.60;;;11.10;80.50;;;;;;5029121;28;20449;-70
2023/03/31 12:16:14;;;;;;;1.10;0.37;;;11.90;77.70;;;;;;5029357;28;20456;-69
2023/03/31 12:18:45;;;;;;;1.20;0.50;;;13.20;76.40;;;;;;5033323;28;20461;-68
2023/03/31 12:21:12;;;;;;;2.30;0.60;;;14.50;68.60;;;;;;5033381;28;20466;-68
2023/03/31 12:23:42;;;;;;;1.30;0.80;;;15.50;64.30;;;;;;5032889;28;20444;-69
2023/03/31 12:26:22;;;;;;;1.13;0.40;;;16.90;61.20;;;;;;5033474;28;20824;-67
2023/03/31 12:28:53;;;;;;;0.67;0.40;;;17.60;55.90;;;;;;5033301;28;20490;-69
2023/03/31 12:31:24;;;;;;;2.87;1.10;;;17.10;57.00;;;;;;5033101;28;20444;-67
2023/03/31 12:33:57;;;;;;;1.47;0.70;;;16.80;57.10;;;;;;5033051;28;20450;-71
2023/03/31 12:36:37;;;;;;;1.17;0.60;;;16.60;56.40;;;;;;5033318;28;20447;-68
2023/03/31 12:39:16;;;;;;;1.30;0.50;;;16.60;58.30;;;;;;5033401;28;20464;-67
2023/03/31 12:41:54;;;;;;;1.23;0.60;;;17.40;55.60;;;;;;5033155;28;20470;-71
2023/03/31 12:44:32;;;;;;;2.17;0.70;;;17.40;53.70;;;;;;5033034;28;20449;-68
2023/03/31 12:47:18;;;;;;;2.63;0.57;;;18.00;51.80;;;;;;5033190;28;20855;-70
2023/03/31 12:50:01;;;;;;;2.63;0.73;;;18.60;50.60;;;;;;5023892;28;20478;-72
2023/03/31 12:52:37;;;;;;;2.27;0.80;;;17.90;50.50;;;;;;5021839;28;20437;-67
2023/03/31 12:55:37;;;;;;;2.40;0.50;;;17.70;51.00;;;;;;5015876;28;20461;-68
2023/03/31 12:58:38;;;;;;;1.23;0.57;;;17.60;50.10;;;;;;5013485;28;21212;-66
2023/03/31 13:01:09;;;;;;;3.33;1.13;;;18.10;50.50;;;;;;5015651;28;20440;-67
2023/03/31 13:03:44;;;;;;;1.70;1.30;;;18.40;50.10;;;;;;5021140;28;21183;-66
2023/03/31 13:06:32;;;;;;;2.60;1.07;;;18.00;50.80;;;;;;5020054;28;20484;-69
2023/03/31 13:09:03;;;;;;;1.83;1.10;;;17.70;49.40;;;;;;5021320;28;20493;-70